createdAt,value
2019-01-12T00:00:31.800Z,1.60
2019-01-12T00:03:00.889Z,1.00
2019-01-12T00:05:30.663Z,1.00
2019-01-12T00:07:59.738Z,1.10
2019-01-12T00:10:30.071Z,1.43
2019-01-12T00:12:59.378Z,0.87
2019-01-12T00:15:28.730Z,1.27
2019-01-12T00:17:57.806Z,1.10
2019-01-12T00:20:26.838Z,0.80
2019-01-12T00:22:55.959Z,1.23
2019-01-12T00:25:25.206Z,1.33
2019-01-12T00:27:54.376Z,1.17
2019-01-12T00:30:24.889Z,2.13
2019-01-12T00:32:53.929Z,2.70
2019-01-12T00:35:24.652Z,1.53
2019-01-12T00:37:53.806Z,2.13
2019-01-12T00:40:23.924Z,1.20
2019-01-12T00:42:53.889Z,0.80
2019-01-12T00:45:23.694Z,1.00
2019-01-12T00:47:52.770Z,1.00
2019-01-12T00:50:38.203Z,0.93
2019-01-12T00:53:07.255Z,1.00
2019-01-12T00:55:37.455Z,1.10
2019-01-12T00:58:06.633Z,1.00
2019-01-12T01:00:35.820Z,1.10
2019-01-12T01:03:04.944Z,0.50
2019-01-12T01:05:34.065Z,0.50
2019-01-12T01:08:04.157Z,0.50
2019-01-12T01:10:33.237Z,1.20
2019-01-12T01:13:02.370Z,0.63
2019-01-12T01:15:31.443Z,0.30
2019-01-12T01:18:00.633Z,0.37
2019-01-12T01:20:29.998Z,0.20
2019-01-12T01:22:59.068Z,0.40
2019-01-12T01:25:28.157Z,0.60
2019-01-12T01:27:57.231Z,0.17
2019-01-12T01:30:26.410Z,0.43
2019-01-12T01:32:55.435Z,0.30
2019-01-12T01:35:27.980Z,0.27
2019-01-12T01:37:57.381Z,0.60
2019-01-12T01:40:26.593Z,0.40
2019-01-12T01:42:55.697Z,0.33
2019-01-12T01:45:24.884Z,0.40
2019-01-12T01:47:54.076Z,6.47
2019-01-12T01:50:24.190Z,1.00
2019-01-12T01:52:53.602Z,0.60
2019-01-12T01:55:22.700Z,0.77
2019-01-12T01:57:52.854Z,0.47
2019-01-12T02:00:21.891Z,0.67
2019-01-12T02:02:51.292Z,0.87
2019-01-12T02:05:20.511Z,1.67
2019-01-12T02:07:49.682Z,1.67
2019-01-12T02:10:21.136Z,0.53
2019-01-12T02:12:50.279Z,0.70
2019-01-12T02:15:20.298Z,0.80
2019-01-12T02:17:49.387Z,0.60
2019-01-12T02:20:18.539Z,0.53
2019-01-12T02:22:47.604Z,0.60
2019-01-12T02:25:16.659Z,0.60
2019-01-12T02:27:45.673Z,0.50
2019-01-12T02:30:21.329Z,0.40
2019-01-12T02:32:50.522Z,0.47
2019-01-12T02:35:19.705Z,0.70
2019-01-12T02:37:49.549Z,0.50
2019-01-12T02:43:11.987Z,0.20
2019-01-12T02:45:41.207Z,0.47
2019-01-12T02:48:10.375Z,0.50
2019-01-12T02:50:39.557Z,0.70
2019-01-12T02:53:09.683Z,0.50
2019-01-12T02:55:39.983Z,0.70
2019-01-12T02:58:10.187Z,0.50
2019-01-12T03:00:40.064Z,0.43
2019-01-12T03:03:09.245Z,1.00
2019-01-12T03:05:39.172Z,0.60
2019-01-12T03:08:08.325Z,0.70
2019-01-12T03:10:37.420Z,0.80
2019-01-12T03:13:06.532Z,0.70
2019-01-12T03:15:35.698Z,1.07
2019-01-12T03:18:04.804Z,1.10
2019-01-12T03:20:33.845Z,0.47
2019-01-12T03:23:02.978Z,0.33
2019-01-12T03:25:32.114Z,0.57
2019-01-12T03:28:01.114Z,0.57
2019-01-12T03:30:30.187Z,0.63
2019-01-12T03:32:59.213Z,0.30
2019-01-12T03:35:28.258Z,0.50
2019-01-12T03:37:57.675Z,0.20
2019-01-12T03:40:26.839Z,0.40
2019-01-12T03:42:55.863Z,0.30
2019-01-12T03:45:25.002Z,0.30
2019-01-12T03:47:54.066Z,0.40
2019-01-12T03:50:23.899Z,0.30
2019-01-12T03:52:52.963Z,0.50
2019-01-12T03:55:25.823Z,0.30
2019-01-12T03:57:51.259Z,0.37
2019-01-12T04:00:22.986Z,0.50
2019-01-12T04:02:52.798Z,0.80
2019-01-12T04:05:21.870Z,0.40
2019-01-12T04:07:51.084Z,0.73
2019-01-12T04:10:20.178Z,0.53
2019-01-12T04:12:49.277Z,0.20
2019-01-12T04:15:18.405Z,0.30
2019-01-12T04:17:47.547Z,0.43
2019-01-12T04:20:17.672Z,0.30
2019-01-12T04:22:46.686Z,0.40
2019-01-12T04:25:15.752Z,0.27
2019-01-12T04:27:44.803Z,0.40
2019-01-12T04:30:16.729Z,0.40
2019-01-12T04:32:46.344Z,0.30
2019-01-12T04:35:15.469Z,0.40
2019-01-12T04:37:44.594Z,0.50
2019-01-12T04:40:17.863Z,0.50
2019-01-12T04:42:46.963Z,0.60
2019-01-12T04:45:16.154Z,0.50
2019-01-12T04:47:45.288Z,0.50
2019-01-12T04:50:16.228Z,0.23
2019-01-12T04:52:45.487Z,0.20
2019-01-12T04:55:16.000Z,0.40
2019-01-12T04:57:50.848Z,0.60
2019-01-12T05:00:21.131Z,0.83
2019-01-12T05:02:50.212Z,0.40
2019-01-12T05:08:23.467Z,0.20
2019-01-12T05:10:52.583Z,0.30
2019-01-12T05:13:21.772Z,0.20
2019-01-12T05:15:50.890Z,0.20
2019-01-12T05:18:19.952Z,0.10
2019-01-12T05:20:48.981Z,0.30
2019-01-12T05:23:18.491Z,0.27
2019-01-12T05:25:49.265Z,0.43
2019-01-12T05:28:16.645Z,0.23
2019-01-12T05:30:45.815Z,0.63
2019-01-12T05:33:14.875Z,0.20
2019-01-12T05:35:43.914Z,0.47
2019-01-12T05:38:13.996Z,0.30
2019-01-12T05:40:43.056Z,0.30
2019-01-12T05:43:12.199Z,0.70
2019-01-12T05:45:41.349Z,0.50
2019-01-12T05:48:10.434Z,0.40
2019-01-12T05:50:39.436Z,0.50
2019-01-12T05:53:08.446Z,0.50
2019-01-12T05:55:37.576Z,0.47
2019-01-12T05:58:06.748Z,0.60
2019-01-12T06:00:35.867Z,0.77
2019-01-12T06:03:05.237Z,1.73
2019-01-12T06:05:34.454Z,0.80
2019-01-12T06:08:03.523Z,0.73
2019-01-12T06:10:32.612Z,0.60
2019-01-12T06:13:01.843Z,0.70
2019-01-12T06:15:31.018Z,0.40
2019-01-12T06:18:00.114Z,0.40
2019-01-12T06:20:29.353Z,0.37
2019-01-12T06:22:58.443Z,0.50
2019-01-12T06:25:27.521Z,0.50
2019-01-12T06:27:56.709Z,0.40
2019-01-12T06:30:25.948Z,0.60
2019-01-12T06:32:55.119Z,0.40
2019-01-12T06:35:24.235Z,0.60
2019-01-12T06:37:53.490Z,0.83
2019-01-12T06:40:22.588Z,0.70
2019-01-12T06:42:51.670Z,0.60
2019-01-12T06:45:20.684Z,0.50
2019-01-12T06:47:49.734Z,0.40
2019-01-12T06:50:20.136Z,0.43
2019-01-12T06:52:49.640Z,0.67
2019-01-12T06:55:18.726Z,0.50
2019-01-12T06:57:47.863Z,1.00
2019-01-12T07:00:18.970Z,1.20
2019-01-12T07:02:48.153Z,0.97
2019-01-12T07:05:17.952Z,1.30
2019-01-12T07:07:47.163Z,0.63
2019-01-12T07:10:16.354Z,1.50
2019-01-12T07:12:45.552Z,0.90
2019-01-12T07:15:14.887Z,0.90
2019-01-12T07:17:44.044Z,0.70
2019-01-12T07:20:14.984Z,1.20
2019-01-12T07:22:44.490Z,1.20
2019-01-12T07:25:13.619Z,0.93
2019-01-12T07:27:42.819Z,1.00
2019-01-12T07:30:15.984Z,1.00
2019-01-12T07:32:45.111Z,1.03
2019-01-12T07:35:14.373Z,1.00
2019-01-12T07:37:43.460Z,0.73
2019-01-12T07:40:12.590Z,1.57
2019-01-12T07:42:41.693Z,1.10
2019-01-12T07:45:11.003Z,1.10
2019-01-12T07:47:40.407Z,1.73
2019-01-12T07:50:11.376Z,1.80
2019-01-12T07:52:40.466Z,1.60
2019-01-12T07:55:09.652Z,0.63
2019-01-12T07:57:38.846Z,1.20
2019-01-12T08:00:12.358Z,0.60
2019-01-12T08:02:41.468Z,0.50
2019-01-12T08:05:10.748Z,1.80
2019-01-12T08:07:40.232Z,0.67
2019-01-12T08:10:13.147Z,1.50
2019-01-12T08:12:42.999Z,1.03
2019-01-12T08:15:12.207Z,1.53
2019-01-12T08:17:41.838Z,1.73
2019-01-12T08:20:12.568Z,1.00
2019-01-12T08:22:41.651Z,1.63
2019-01-12T08:25:10.799Z,1.00
2019-01-12T08:27:40.800Z,1.50
2019-01-12T08:30:13.618Z,1.77
2019-01-12T08:32:43.248Z,1.40
2019-01-12T08:35:15.227Z,1.73
2019-01-12T08:37:44.436Z,1.60
2019-01-12T08:40:14.787Z,1.27
2019-01-12T08:42:43.902Z,1.37
2019-01-12T08:45:13.846Z,1.57
2019-01-12T08:47:43.800Z,1.67
2019-01-12T08:50:18.177Z,2.27
2019-01-12T08:52:51.733Z,3.10
2019-01-12T08:55:22.246Z,1.90
2019-01-12T08:57:51.629Z,7.60
2019-01-12T09:00:22.207Z,2.43
2019-01-12T09:02:53.313Z,1.47
2019-01-12T09:05:23.294Z,3.70
2019-01-12T09:07:52.570Z,1.47
2019-01-12T09:10:22.866Z,2.10
2019-01-12T09:12:54.590Z,2.47
2019-01-12T09:15:25.327Z,2.33
2019-01-12T09:17:55.034Z,1.53
2019-01-12T09:20:24.281Z,1.57
2019-01-12T09:22:53.501Z,1.70
2019-01-12T09:25:22.646Z,2.10
2019-01-12T09:27:52.518Z,1.13
2019-01-12T09:30:22.894Z,1.90
2019-01-12T09:32:52.474Z,1.63
2019-01-12T09:35:21.899Z,1.37
2019-01-12T09:37:51.085Z,1.03
2019-01-12T09:40:21.687Z,2.00
2019-01-12T09:42:51.223Z,1.43
2019-01-12T09:45:21.438Z,2.40
2019-01-12T09:47:50.745Z,1.20
2019-01-12T09:50:31.698Z,1.43
2019-01-12T09:53:01.089Z,2.87
2019-01-12T09:55:30.687Z,2.43
2019-01-12T09:58:00.111Z,1.23
2019-01-12T10:00:30.372Z,1.37
2019-01-12T10:02:59.627Z,2.80
2019-01-12T10:05:28.854Z,2.30
2019-01-12T10:08:00.076Z,1.50
2019-01-12T10:10:30.311Z,2.10
2019-01-12T10:12:59.685Z,2.00
2019-01-12T10:15:29.006Z,2.30
2019-01-12T10:17:58.089Z,1.70
2019-01-12T10:20:27.253Z,2.13
2019-01-12T10:22:57.087Z,1.93
2019-01-12T10:25:27.000Z,1.57
2019-01-12T10:27:56.156Z,1.93
2019-01-12T10:30:26.629Z,1.77
2019-01-12T10:32:56.128Z,1.90
2019-01-12T10:35:26.370Z,1.90
2019-01-12T10:37:55.713Z,2.10
2019-01-12T10:40:24.970Z,1.83
2019-01-12T10:42:54.981Z,1.87
2019-01-12T10:45:26.937Z,1.27
2019-01-12T10:47:56.512Z,1.73
2019-01-12T10:50:32.521Z,1.47
2019-01-12T10:53:03.891Z,1.43
2019-01-12T10:55:33.363Z,2.20
2019-01-12T10:58:10.758Z,2.53
2019-01-12T11:00:40.627Z,1.17
2019-01-12T11:03:11.019Z,1.60
2019-01-12T11:05:40.293Z,1.43
2019-01-12T11:08:10.977Z,1.80
2019-01-12T11:10:40.423Z,1.60
2019-01-12T11:13:10.706Z,2.13
2019-01-12T11:15:40.197Z,1.80
2019-01-12T11:18:09.960Z,1.63
2019-01-12T11:20:40.289Z,3.50
2019-01-12T11:23:09.586Z,2.77
2019-01-12T11:25:43.004Z,3.10
2019-01-12T11:28:09.361Z,2.70
2019-01-12T11:30:38.532Z,1.27
2019-01-12T11:33:07.799Z,1.67
2019-01-12T11:35:38.804Z,1.10
2019-01-12T11:38:09.189Z,1.07
2019-01-12T11:40:38.894Z,0.97
2019-01-12T11:43:07.983Z,1.10
2019-01-12T11:45:37.481Z,0.80
2019-01-12T11:48:06.950Z,0.97
2019-01-12T11:50:37.225Z,1.00
2019-01-12T11:53:06.457Z,1.50
2019-01-12T11:55:36.538Z,1.37
2019-01-12T11:58:06.507Z,0.90
2019-01-12T12:00:36.612Z,0.97
2019-01-12T12:03:07.615Z,1.30
2019-01-12T12:05:37.739Z,1.20
2019-01-12T12:08:07.335Z,1.20
2019-01-12T12:10:36.542Z,1.50
2019-01-12T12:13:05.885Z,1.30
2019-01-12T12:15:35.666Z,0.73
2019-01-12T12:18:04.970Z,1.70
2019-01-12T12:20:34.132Z,1.63
2019-01-12T12:23:04.573Z,1.43
2019-01-12T12:25:33.772Z,1.37
2019-01-12T12:28:03.820Z,0.87
2019-01-12T12:30:33.989Z,0.97
2019-01-12T12:33:05.092Z,0.83
2019-01-12T12:35:37.870Z,1.33
2019-01-12T12:38:04.968Z,0.83
2019-01-12T12:40:35.574Z,2.03
2019-01-12T12:43:05.639Z,1.23
2019-01-12T12:45:37.178Z,2.20
2019-01-12T12:48:07.240Z,0.87
2019-01-12T12:50:38.191Z,0.60
2019-01-12T12:53:07.364Z,1.10
2019-01-12T12:55:42.988Z,1.40
2019-01-12T12:58:14.048Z,1.27
2019-01-12T13:00:43.535Z,1.00
2019-01-12T13:03:12.612Z,0.87
2019-01-12T13:05:43.944Z,0.83
2019-01-12T13:08:14.238Z,1.50
2019-01-12T13:10:43.595Z,1.00
2019-01-12T13:13:13.997Z,0.50
2019-01-12T13:15:44.748Z,1.70
2019-01-12T13:18:13.939Z,0.97
2019-01-12T13:20:43.652Z,1.17
2019-01-12T13:23:14.385Z,1.13
2019-01-12T13:25:43.695Z,1.17
2019-01-12T13:28:13.218Z,0.90
2019-01-12T13:30:42.517Z,0.80
2019-01-12T13:33:12.626Z,0.80
2019-01-12T13:35:42.023Z,0.97
2019-01-12T13:38:11.217Z,1.57
2019-01-12T13:40:40.686Z,0.70
2019-01-12T13:43:09.781Z,1.10
2019-01-12T13:45:38.976Z,0.70
2019-01-12T13:48:08.799Z,0.60
2019-01-12T13:50:38.685Z,1.03
2019-01-12T13:53:09.725Z,2.03
2019-01-12T13:55:38.808Z,1.13
2019-01-12T13:58:08.226Z,0.87
2019-01-12T14:00:38.079Z,1.00
2019-01-12T14:03:08.353Z,0.87
2019-01-12T14:05:37.800Z,1.40
2019-01-12T14:08:08.150Z,1.07
2019-01-12T14:10:37.940Z,1.70
2019-01-12T14:13:07.699Z,1.00
2019-01-12T14:15:38.075Z,1.50
2019-01-12T14:18:07.551Z,2.60
2019-01-12T14:20:39.256Z,1.17
2019-01-12T14:23:10.339Z,1.37
2019-01-12T14:25:41.014Z,1.53
2019-01-12T14:28:10.229Z,1.60
2019-01-12T14:30:39.563Z,1.33
2019-01-12T14:33:08.707Z,1.17
2019-01-12T14:35:38.482Z,1.47
2019-01-12T14:38:07.588Z,0.60
2019-01-12T14:40:36.691Z,1.43
2019-01-12T14:43:05.846Z,0.60
2019-01-12T14:45:35.045Z,0.80
2019-01-12T14:48:04.228Z,0.40
2019-01-12T14:50:34.098Z,0.90
2019-01-12T14:53:03.229Z,0.97
2019-01-12T14:55:32.422Z,1.30
2019-01-12T14:58:02.862Z,0.87
2019-01-12T15:00:31.063Z,1.00
2019-01-12T15:03:00.248Z,1.37
2019-01-12T15:05:32.810Z,3.03
2019-01-12T15:08:01.959Z,1.50
2019-01-12T15:10:31.379Z,1.40
2019-01-12T15:13:00.747Z,1.97
2019-01-12T15:15:31.169Z,0.90
2019-01-12T15:18:00.270Z,1.53
2019-01-12T15:20:30.677Z,1.80
2019-01-12T15:22:59.850Z,1.87
2019-01-12T15:25:29.418Z,1.23
2019-01-12T15:27:58.701Z,1.20
2019-01-12T15:30:30.237Z,2.10
2019-01-12T15:33:01.490Z,1.80
2019-01-12T15:35:32.497Z,1.90
2019-01-12T15:38:01.671Z,1.70
2019-01-12T15:40:30.821Z,2.43
2019-01-12T15:42:59.915Z,1.20
2019-01-12T15:45:29.526Z,1.60
2019-01-12T15:47:58.597Z,1.17
2019-01-12T15:50:28.515Z,1.43
2019-01-12T15:52:57.609Z,1.77
2019-01-12T15:55:26.683Z,1.10
2019-01-12T15:57:55.827Z,1.43
2019-01-12T16:00:27.944Z,2.30
2019-01-12T16:02:57.211Z,1.23
2019-01-12T16:05:26.920Z,1.63
2019-01-12T16:07:56.174Z,1.17
2019-01-12T16:10:25.417Z,1.33
2019-01-12T16:12:57.325Z,3.43
2019-01-12T16:15:27.810Z,1.30
2019-01-12T16:17:58.464Z,2.03
2019-01-12T16:20:32.507Z,1.70
2019-01-12T16:23:02.531Z,2.30
2019-01-12T16:25:31.696Z,2.13
2019-01-12T16:28:01.833Z,3.07
2019-01-12T16:30:31.521Z,1.80
2019-01-12T16:33:00.579Z,2.10
2019-01-12T16:35:29.689Z,1.60
2019-01-12T16:37:58.777Z,2.27
2019-01-12T16:40:28.018Z,1.67
2019-01-12T16:42:57.027Z,2.50
2019-01-12T16:45:26.069Z,1.47
2019-01-12T16:47:55.092Z,3.33
2019-01-12T16:50:24.190Z,2.00
2019-01-12T16:52:53.835Z,1.73
2019-01-12T16:55:23.377Z,1.57
2019-01-12T16:57:52.435Z,3.13
2019-01-12T17:00:24.196Z,2.50
2019-01-12T17:02:54.335Z,1.83
2019-01-12T17:05:24.465Z,2.00
2019-01-12T17:07:54.397Z,1.83
2019-01-12T17:10:23.511Z,1.23
2019-01-12T17:13:04.235Z,2.50
2019-01-12T17:15:34.804Z,5.13
2019-01-12T17:18:02.560Z,1.60
2019-01-12T17:20:31.685Z,2.37
2019-01-12T17:23:03.235Z,2.40
2019-01-12T17:25:32.378Z,1.60
2019-01-12T17:28:01.999Z,2.30
2019-01-12T17:30:31.387Z,2.70
2019-01-12T17:33:01.447Z,2.20
2019-01-12T17:35:30.615Z,3.50
2019-01-12T17:37:59.967Z,3.80
2019-01-12T17:40:29.114Z,3.67
2019-01-12T17:42:58.322Z,4.43
2019-01-12T17:45:27.932Z,4.53
2019-01-12T17:47:57.062Z,3.47
2019-01-12T17:50:27.875Z,3.43
2019-01-12T17:52:56.921Z,2.87
2019-01-12T17:56:30.633Z,4.10
2019-01-12T17:58:59.674Z,3.67
2019-01-12T18:01:28.940Z,3.70
2019-01-12T18:03:58.324Z,5.23
2019-01-12T18:06:27.441Z,2.77
2019-01-12T18:08:56.488Z,4.17
2019-01-12T18:11:25.784Z,4.00
2019-01-12T18:13:54.845Z,3.37
2019-01-12T18:16:23.915Z,3.90
2019-01-12T18:18:52.960Z,2.10
2019-01-12T18:21:22.021Z,3.17
2019-01-12T18:23:51.064Z,2.40
2019-01-12T18:26:20.139Z,2.13
2019-01-12T18:28:51.587Z,3.77
2019-01-12T18:31:18.422Z,3.73
2019-01-12T18:33:48.243Z,3.43
2019-01-12T18:36:17.679Z,3.30
2019-01-12T18:38:46.811Z,3.87
2019-01-12T18:41:16.775Z,4.33
2019-01-12T18:43:45.984Z,3.27
2019-01-12T18:46:15.079Z,3.43
2019-01-12T18:48:45.093Z,4.10
2019-01-12T18:51:14.214Z,3.40
2019-01-12T18:53:43.310Z,4.20
2019-01-12T18:56:12.484Z,4.00
2019-01-12T18:58:41.600Z,3.90
2019-01-12T19:01:10.757Z,3.40
2019-01-12T19:03:40.699Z,3.37
2019-01-12T19:06:09.930Z,3.63
2019-01-12T19:08:39.042Z,3.57
2019-01-12T19:11:08.102Z,4.20
2019-01-12T19:13:37.310Z,3.73
2019-01-12T19:16:06.713Z,3.20
2019-01-12T19:18:36.168Z,4.33
2019-01-12T19:21:05.315Z,4.67
2019-01-12T19:23:34.786Z,5.43
2019-01-12T19:26:04.591Z,5.60
2019-01-12T19:28:33.638Z,5.57
2019-01-12T19:31:03.459Z,4.73
2019-01-12T19:33:32.592Z,5.30
2019-01-12T19:36:02.825Z,5.13
2019-01-12T19:38:31.956Z,6.07
2019-01-12T19:41:01.013Z,5.10
2019-01-12T19:43:30.047Z,4.80
2019-01-12T19:45:58.876Z,4.60
2019-01-12T19:48:27.914Z,4.33
2019-01-12T19:50:58.617Z,3.50
2019-01-12T19:53:27.990Z,4.27
2019-01-12T19:55:57.096Z,3.10
2019-01-12T19:58:26.262Z,3.50
2019-01-12T20:00:55.817Z,3.47
2019-01-12T20:03:26.131Z,4.03
2019-01-12T20:05:55.855Z,3.63
2019-01-12T20:08:25.070Z,3.53
2019-01-12T20:10:54.171Z,5.27
2019-01-12T20:13:23.246Z,4.27
2019-01-12T20:15:52.337Z,4.37
2019-01-12T20:18:21.365Z,4.60
2019-01-12T20:20:50.454Z,3.93
2019-01-12T20:23:19.593Z,3.13
2019-01-12T20:25:49.424Z,3.40
2019-01-12T20:28:21.489Z,3.73
2019-01-12T20:31:07.994Z,2.90
2019-01-12T20:33:49.272Z,3.63
2019-01-12T20:38:47.810Z,3.77
2019-01-12T20:42:04.932Z,3.57
2019-01-12T20:45:05.693Z,3.47
2019-01-12T20:47:55.033Z,7.13
2019-01-12T20:50:48.732Z,2.43
2019-01-12T20:53:37.057Z,2.23
2019-01-12T20:58:24.797Z,2.70
2019-01-12T21:03:07.730Z,2.90
2019-01-12T21:05:56.366Z,2.63
2019-01-12T21:09:41.164Z,2.67
2019-01-12T21:12:24.172Z,3.17
2019-01-12T21:14:59.656Z,2.10
2019-01-12T21:17:28.946Z,2.30
2019-01-12T21:19:58.038Z,3.30
2019-01-12T21:22:27.107Z,2.70
2019-01-12T21:24:56.147Z,3.00
2019-01-12T21:27:25.249Z,2.73
2019-01-12T21:30:03.812Z,2.83
2019-01-12T21:32:32.972Z,2.87
2019-01-12T21:35:02.230Z,2.10
2019-01-12T21:37:31.890Z,2.47
2019-01-12T21:40:00.882Z,2.43
2019-01-12T21:42:30.431Z,3.23
2019-01-12T21:44:59.587Z,1.60
2019-01-12T21:47:28.621Z,2.43
2019-01-12T21:49:57.738Z,1.63
2019-01-12T21:52:27.015Z,2.27
2019-01-12T21:54:56.018Z,1.97
2019-01-12T21:57:25.265Z,3.07
2019-01-12T21:59:54.317Z,1.80
2019-01-12T22:02:24.136Z,2.13
2019-01-12T22:04:53.289Z,1.80
2019-01-12T22:07:22.345Z,1.80
2019-01-12T22:09:51.578Z,2.17
2019-01-12T22:12:20.687Z,2.20
2019-01-12T22:14:49.702Z,1.83
2019-01-12T22:17:19.503Z,2.50
2019-01-12T22:19:48.487Z,6.90
2019-01-12T22:22:17.659Z,2.50
2019-01-12T22:24:46.751Z,2.40
2019-01-12T22:27:15.879Z,1.90
2019-01-12T22:29:49.868Z,1.90
2019-01-12T22:32:14.147Z,2.90
2019-01-12T22:34:43.162Z,2.40
2019-01-12T22:37:13.145Z,2.67
2019-01-12T22:39:42.190Z,2.13
2019-01-12T22:42:11.851Z,2.53
2019-01-12T22:44:40.998Z,2.57
2019-01-12T22:47:10.050Z,2.93
2019-01-12T22:49:39.157Z,2.10
2019-01-12T22:52:08.783Z,2.10
2019-01-12T22:54:38.872Z,2.37
2019-01-12T22:57:07.889Z,2.50
2019-01-12T22:59:36.961Z,1.90
2019-01-12T23:02:08.757Z,2.10
2019-01-12T23:04:38.041Z,1.67
2019-01-12T23:07:11.374Z,2.47
2019-01-12T23:09:36.514Z,1.70
2019-01-12T23:12:05.665Z,1.93
2019-01-12T23:14:34.742Z,1.73
2019-01-12T23:17:05.342Z,1.97
2019-01-12T23:19:35.083Z,2.33
2019-01-12T23:22:04.694Z,2.37
2019-01-12T23:24:33.741Z,2.07
2019-01-12T23:27:02.888Z,2.37
2019-01-12T23:29:31.983Z,2.40
2019-01-12T23:32:01.055Z,2.47
2019-01-12T23:34:30.107Z,2.97
2019-01-12T23:36:59.118Z,2.33
2019-01-12T23:39:28.238Z,2.23
2019-01-12T23:41:57.282Z,2.30
2019-01-12T23:44:26.329Z,2.73
2019-01-12T23:46:55.331Z,2.40
2019-01-12T23:49:28.206Z,2.93
2019-01-12T23:51:57.280Z,2.50
2019-01-12T23:54:26.364Z,2.43
2019-01-12T23:56:55.402Z,2.83
2019-01-12T23:59:24.395Z,3.10
